sensor_id;sensor_type;location;lat;lon;timestamp;pressure;altitude;pressure_sealevel;temperature;humidity
6680;BME280;3376;42.664;23.346;2023-04-25T00:01:20;93807.94;;;12.22;100.00
6680;BME280;3376;42.664;23.346;2023-04-25T00:03:47;93801.13;;;12.21;100.00
6680;BME280;3376;42.664;23.346;2023-04-25T00:06:14;93720.34;;;11.58;100.00
6680;BME280;3376;42.664;23.346;2023-04-25T00:08:44;93790.78;;;12.01;100.00
6680;BME280;3376;42.664;23.346;2023-04-25T00:11:11;93781.97;;;12.02;100.00
6680;BME280;3376;42.664;23.346;2023-04-25T00:13:37;93767.81;;;11.98;100.00
6680;BME280;3376;42.664;23.346;2023-04-25T00:16:07;93763.63;;;11.97;100.00
6680;BME280;3376;42.664;23.346;2023-04-25T00:18:33;93767.38;;;12.14;100.00
6680;BME280;3376;42.664;23.346;2023-04-25T00:21:00;93738.84;;;12.08;100.00
6680;BME280;3376;42.664;23.346;2023-04-25T00:23:27;93745.25;;;12.12;100.00
6680;BME280;3376;42.664;23.346;2023-04-25T00:25:56;93754.00;;;12.17;100.00
6680;BME280;3376;42.664;23.346;2023-04-25T00:28:23;93748.22;;;12.09;100.00
6680;BME280;3376;42.664;23.346;2023-04-25T00:30:49;93747.44;;;12.02;100.00
6680;BME280;3376;42.664;23.346;2023-04-25T00:33:16;93740.66;;;12.01;100.00
6680;BME280;3376;42.664;23.346;2023-04-25T00:35:43;93675.44;;;11.58;100.00
6680;BME280;3376;42.664;23.346;2023-04-25T00:38:10;93746.66;;;12.01;100.00
6680;BME280;3376;42.664;23.346;2023-04-25T00:40:37;93744.84;;;11.95;100.00
6680;BME280;3376;42.664;23.346;2023-04-25T00:43:05;93737.88;;;11.96;100.00
6680;BME280;3376;42.664;23.346;2023-04-25T00:45:37;93731.69;;;11.97;100.00
6680;BME280;3376;42.664;23.346;2023-04-25T00:48:05;93728.50;;;11.88;100.00
6680;BME280;3376;42.664;23.346;2023-04-25T00:50:33;93718.53;;;11.78;100.00
6680;BME280;3376;42.664;23.346;2023-04-25T00:53:00;93728.50;;;11.81;100.00
6680;BME280;3376;42.664;23.346;2023-04-25T00:55:28;93734.91;;;11.86;100.00
6680;BME280;3376;42.664;23.346;2023-04-25T00:57:56;93584.38;;;10.89;100.00
6680;BME280;3376;42.664;23.346;2023-04-25T01:00:25;93729.53;;;11.74;100.00
6680;BME280;3376;42.664;23.346;2023-04-25T01:02:51;93734.72;;;11.67;100.00
6680;BME280;3376;42.664;23.346;2023-04-25T01:05:18;93737.72;;;11.71;100.00
6680;BME280;3376;42.664;23.346;2023-04-25T01:07:45;93734.91;;;11.79;100.00
6680;BME280;3376;42.664;23.346;2023-04-25T01:10:12;93707.16;;;11.60;100.00
6680;BME280;3376;42.664;23.346;2023-04-25T01:12:39;93725.53;;;11.78;100.00
6680;BME280;3376;42.664;23.346;2023-04-25T01:15:06;93684.66;;;11.67;100.00
6680;BME280;3376;42.664;23.346;2023-04-25T01:17:35;93693.81;;;11.82;100.00
6680;BME280;3376;42.664;23.346;2023-04-25T01:20:03;93657.69;;;11.55;100.00
6680;BME280;3376;42.664;23.346;2023-04-25T01:22:31;93698.19;;;11.69;100.00
6680;BME280;3376;42.664;23.346;2023-04-25T01:24:58;93697.41;;;11.68;100.00
6680;BME280;3376;42.664;23.346;2023-04-25T01:27:26;93700.22;;;11.67;100.00
6680;BME280;3376;42.664;23.346;2023-04-25T01:29:54;93663.91;;;11.41;100.00
6680;BME280;3376;42.664;23.346;2023-04-25T01:32:21;93693.81;;;11.56;100.00
6680;BME280;3376;42.664;23.346;2023-04-25T01:34:48;93669.69;;;11.36;100.00
6680;BME280;3376;42.664;23.346;2023-04-25T01:37:16;93703.97;;;11.58;100.00
6680;BME280;3376;42.664;23.346;2023-04-25T01:39:44;93707.75;;;11.49;100.00
6680;BME280;3376;42.664;23.346;2023-04-25T01:42:12;93569.22;;;10.60;100.00
6680;BME280;3376;42.664;23.346;2023-04-25T01:44:39;93711.56;;;11.40;100.00
6680;BME280;3376;42.664;23.346;2023-04-25T01:47:06;93599.31;;;10.74;100.00
6680;BME280;3376;42.664;23.346;2023-04-25T01:49:33;93703.19;;;11.44;100.00
6680;BME280;3376;42.664;23.346;2023-04-25T01:51:59;93710.75;;;11.46;100.00
6680;BME280;3376;42.664;23.346;2023-04-25T01:54:26;93709.97;;;11.39;100.00
6680;BME280;3376;42.664;23.346;2023-04-25T01:56:57;93724.72;;;11.38;100.00
6680;BME280;3376;42.664;23.346;2023-04-25T01:59:23;93724.16;;;11.36;100.00
6680;BME280;3376;42.664;23.346;2023-04-25T02:01:50;93716.53;;;11.35;100.00
6680;BME280;3376;42.664;23.346;2023-04-25T02:04:17;93697.81;;;11.33;100.00
6680;BME280;3376;42.664;23.346;2023-04-25T02:06:44;93705.38;;;11.41;100.00
6680;BME280;3376;42.664;23.346;2023-04-25T02:09:11;93700.59;;;11.38;100.00
6680;BME280;3376;42.664;23.346;2023-04-25T02:11:37;93701.00;;;11.41;100.00
6680;BME280;3376;42.664;23.346;2023-04-25T02:14:05;93691.03;;;11.32;100.00
6680;BME280;3376;42.664;23.346;2023-04-25T02:16:32;93705.19;;;11.29;100.00
6680;BME280;3376;42.664;23.346;2023-04-25T02:19:00;93696.22;;;11.25;100.00
6680;BME280;3376;42.664;23.346;2023-04-25T02:21:27;93696.03;;;11.14;100.00
6680;BME280;3376;42.664;23.346;2023-04-25T02:23:54;93681.44;;;11.00;100.00
6680;BME280;3376;42.664;23.346;2023-04-25T02:26:21;93680.25;;;11.09;100.00
6680;BME280;3376;42.664;23.346;2023-04-25T02:28:49;93667.31;;;11.09;100.00
6680;BME280;3376;42.664;23.346;2023-04-25T02:31:17;93667.09;;;11.10;100.00
6680;BME280;3376;42.664;23.346;2023-04-25T02:33:44;93682.25;;;11.20;100.00
6680;BME280;3376;42.664;23.346;2023-04-25T02:36:10;93676.25;;;11.13;100.00
6680;BME280;3376;42.664;23.346;2023-04-25T02:38:37;93651.56;;;11.04;100.00
6680;BME280;3376;42.664;23.346;2023-04-25T02:41:04;93668.28;;;11.08;100.00
6680;BME280;3376;42.664;23.346;2023-04-25T02:43:31;93653.91;;;10.99;100.00
6680;BME280;3376;42.664;23.346;2023-04-25T02:45:58;93670.28;;;11.06;100.00
6680;BME280;3376;42.664;23.346;2023-04-25T02:48:26;93677.66;;;11.09;100.00
6680;BME280;3376;42.664;23.346;2023-04-25T02:50:53;93663.09;;;10.95;100.00
6680;BME280;3376;42.664;23.346;2023-04-25T02:53:20;93670.09;;;11.07;100.00
6680;BME280;3376;42.664;23.346;2023-04-25T02:55:47;93660.72;;;10.93;100.00
6680;BME280;3376;42.664;23.346;2023-04-25T02:58:13;93632.41;;;10.79;100.00
6680;BME280;3376;42.664;23.346;2023-04-25T03:00:41;93652.53;;;10.90;100.00
6680;BME280;3376;42.664;23.346;2023-04-25T03:03:07;93655.91;;;10.84;100.00
6680;BME280;3376;42.664;23.346;2023-04-25T03:05:36;93657.31;;;10.86;100.00
6680;BME280;3376;42.664;23.346;2023-04-25T03:08:02;93656.91;;;10.83;100.00
6680;BME280;3376;42.664;23.346;2023-04-25T03:10:29;93623.00;;;10.64;100.00
6680;BME280;3376;42.664;23.346;2023-04-25T03:12:56;93640.16;;;10.79;100.00
6680;BME280;3376;42.664;23.346;2023-04-25T03:15:23;93642.97;;;10.90;100.00
6680;BME280;3376;42.664;23.346;2023-04-25T03:17:49;93645.78;;;11.02;100.00
6680;BME280;3376;42.664;23.346;2023-04-25T03:20:16;93640.56;;;10.89;100.00
6680;BME280;3376;42.664;23.346;2023-04-25T03:22:44;93659.50;;;10.96;100.00
6680;BME280;3376;42.664;23.346;2023-04-25T03:25:11;93651.94;;;10.88;100.00
6680;BME280;3376;42.664;23.346;2023-04-25T03:27:38;93616.44;;;10.82;100.00
6680;BME280;3376;42.664;23.346;2023-04-25T03:30:06;93648.16;;;11.10;100.00
6680;BME280;3376;42.664;23.346;2023-04-25T03:32:33;93635.59;;;11.07;100.00
6680;BME280;3376;42.664;23.346;2023-04-25T03:35:00;93637.19;;;11.08;100.00
6680;BME280;3376;42.664;23.346;2023-04-25T03:37:26;93627.63;;;11.08;100.00
6680;BME280;3376;42.664;23.346;2023-04-25T03:39:54;93634.78;;;11.06;100.00
6680;BME280;3376;42.664;23.346;2023-04-25T03:42:21;93645.56;;;11.16;100.00
6680;BME280;3376;42.664;23.346;2023-04-25T03:44:48;93642.78;;;11.24;100.00
6680;BME280;3376;42.664;23.346;2023-04-25T03:47:15;93646.34;;;11.23;100.00
6680;BME280;3376;42.664;23.346;2023-04-25T03:49:42;93641.38;;;11.09;100.00
6680;BME280;3376;42.664;23.346;2023-04-25T03:52:09;93645.56;;;11.10;100.00
6680;BME280;3376;42.664;23.346;2023-04-25T03:54:36;93630.81;;;11.10;100.00
6680;BME280;3376;42.664;23.346;2023-04-25T03:57:04;93638.97;;;11.27;100.00
6680;BME280;3376;42.664;23.346;2023-04-25T03:59:31;93633.56;;;11.35;100.00
6680;BME280;3376;42.664;23.346;2023-04-25T04:01:58;93633.59;;;11.41;100.00
6680;BME280;3376;42.664;23.346;2023-04-25T04:04:24;93629.00;;;11.37;100.00
6680;BME280;3376;42.664;23.346;2023-04-25T04:06:51;93640.34;;;11.49;100.00
6680;BME280;3376;42.664;23.346;2023-04-25T04:09:18;93655.50;;;11.65;100.00
6680;BME280;3376;42.664;23.346;2023-04-25T04:11:45;93643.91;;;11.67;100.00
6680;BME280;3376;42.664;23.346;2023-04-25T04:14:13;93659.06;;;11.83;100.00
6680;BME280;3376;42.664;23.346;2023-04-25T04:16:40;93660.22;;;11.94;100.00
6680;BME280;3376;42.664;23.346;2023-04-25T04:19:07;93656.59;;;12.02;100.00
6680;BME280;3376;42.664;23.346;2023-04-25T04:21:34;93668.00;;;11.94;100.00
6680;BME280;3376;42.664;23.346;2023-04-25T04:24:00;93657.88;;;11.86;100.00
6680;BME280;3376;42.664;23.346;2023-04-25T04:26:27;93640.13;;;11.70;100.00
6680;BME280;3376;42.664;23.346;2023-04-25T04:28:54;93655.50;;;11.71;100.00
6680;BME280;3376;42.664;23.346;2023-04-25T04:31:23;93653.50;;;11.67;100.00
6680;BME280;3376;42.664;23.346;2023-04-25T04:33:50;93639.53;;;11.68;100.00
6680;BME280;3376;42.664;23.346;2023-04-25T04:36:17;93655.06;;;11.81;100.00
6680;BME280;3376;42.664;23.346;2023-04-25T04:38:45;93659.84;;;11.77;100.00
6680;BME280;3376;42.664;23.346;2023-04-25T04:41:12;93663.81;;;11.87;100.00
6680;BME280;3376;42.664;23.346;2023-04-25T04:43:38;93654.63;;;11.97;100.00
6680;BME280;3376;42.664;23.346;2023-04-25T04:46:06;93644.22;;;11.97;100.00
6680;BME280;3376;42.664;23.346;2023-04-25T04:48:34;93650.84;;;12.00;100.00
6680;BME280;3376;42.664;23.346;2023-04-25T04:51:00;93653.81;;;12.03;100.00
6680;BME280;3376;42.664;23.346;2023-04-25T04:53:27;93540.66;;;11.32;100.00
6680;BME280;3376;42.664;23.346;2023-04-25T04:55:54;93670.13;;;12.17;100.00
6680;BME280;3376;42.664;23.346;2023-04-25T04:58:21;93658.59;;;12.06;100.00
6680;BME280;3376;42.664;23.346;2023-04-25T05:00:48;93664.72;;;12.18;100.00
6680;BME280;3376;42.664;23.346;2023-04-25T05:03:15;93673.53;;;12.11;100.00
6680;BME280;3376;42.664;23.346;2023-04-25T05:05:43;93676.50;;;12.21;100.00
6680;BME280;3376;42.664;23.346;2023-04-25T05:08:11;93679.16;;;12.08;100.00
6680;BME280;3376;42.664;23.346;2023-04-25T05:10:37;93673.19;;;12.01;100.00
6680;BME280;3376;42.664;23.346;2023-04-25T05:13:04;93694.88;;;12.19;100.00
6680;BME280;3376;42.664;23.346;2023-04-25T05:15:31;93696.94;;;12.04;100.00
6680;BME280;3376;42.664;23.346;2023-04-25T05:17:58;93693.53;;;12.04;100.00
6680;BME280;3376;42.664;23.346;2023-04-25T05:20:25;93655.47;;;11.78;100.00
6680;BME280;3376;42.664;23.346;2023-04-25T05:22:53;93692.53;;;12.05;100.00
6680;BME280;3376;42.664;23.346;2023-04-25T05:25:19;93686.88;;;12.21;100.00
6680;BME280;3376;42.664;23.346;2023-04-25T05:27:46;93680.06;;;12.26;100.00
6680;BME280;3376;42.664;23.346;2023-04-25T05:30:13;93661.13;;;12.19;100.00
6680;BME280;3376;42.664;23.346;2023-04-25T05:32:40;93649.03;;;11.94;100.00
6680;BME280;3376;42.664;23.346;2023-04-25T05:35:08;93676.09;;;12.17;100.00
6680;BME280;3376;42.664;23.346;2023-04-25T05:37:34;93682.06;;;12.24;100.00
6680;BME280;3376;42.664;23.346;2023-04-25T05:40:04;93668.91;;;12.19;100.00
6680;BME280;3376;42.664;23.346;2023-04-25T05:42:32;93682.41;;;12.41;100.00
6680;BME280;3376;42.664;23.346;2023-04-25T05:44:58;93684.38;;;12.45;100.00
6680;BME280;3376;42.664;23.346;2023-04-25T05:47:26;93682.56;;;12.52;100.00
6680;BME280;3376;42.664;23.346;2023-04-25T05:49:52;93674.75;;;12.52;100.00
6680;BME280;3376;42.664;23.346;2023-04-25T05:52:19;93693.22;;;12.75;100.00
6680;BME280;3376;42.664;23.346;2023-04-25T05:54:46;93689.41;;;12.78;100.00
6680;BME280;3376;42.664;23.346;2023-04-25T05:57:20;93682.31;;;12.91;100.00
6680;BME280;3376;42.664;23.346;2023-04-25T05:59:47;93685.28;;;13.02;100.00
6680;BME280;3376;42.664;23.346;2023-04-25T06:02:14;93688.81;;;13.14;100.00
6680;BME280;3376;42.664;23.346;2023-04-25T06:04:41;93690.34;;;13.21;100.00
6680;BME280;3376;42.664;23.346;2023-04-25T06:07:08;93692.19;;;13.39;100.00
6680;BME280;3376;42.664;23.346;2023-04-25T06:09:34;93682.38;;;13.41;100.00
6680;BME280;3376;42.664;23.346;2023-04-25T06:12:02;93681.47;;;13.29;100.00
6680;BME280;3376;42.664;23.346;2023-04-25T06:14:30;93685.25;;;13.08;100.00
6680;BME280;3376;42.664;23.346;2023-04-25T06:16:57;93689.97;;;13.18;100.00
6680;BME280;3376;42.664;23.346;2023-04-25T06:19:23;93693.69;;;13.04;100.00
6680;BME280;3376;42.664;23.346;2023-04-25T06:21:50;93680.84;;;13.09;100.00
6680;BME280;3376;42.664;23.346;2023-04-25T06:24:17;93691.88;;;13.29;100.00
6680;BME280;3376;42.664;23.346;2023-04-25T06:26:44;93678.94;;;13.22;100.00
6680;BME280;3376;42.664;23.346;2023-04-25T06:29:12;93695.81;;;13.38;100.00
6680;BME280;3376;42.664;23.346;2023-04-25T06:31:40;93472.34;;;11.95;100.00
6680;BME280;3376;42.664;23.346;2023-04-25T06:34:07;93702.94;;;13.49;100.00
6680;BME280;3376;42.664;23.346;2023-04-25T06:36:34;93702.31;;;13.71;100.00
6680;BME280;3376;42.664;23.346;2023-04-25T06:39:01;93692.75;;;13.90;100.00
6680;BME280;3376;42.664;23.346;2023-04-25T06:41:28;93681.78;;;14.24;100.00
6680;BME280;3376;42.664;23.346;2023-04-25T06:43:54;93700.16;;;14.65;100.00
6680;BME280;3376;42.664;23.346;2023-04-25T06:46:21;93706.38;;;14.94;100.00
6680;BME280;3376;42.664;23.346;2023-04-25T06:48:49;93688.63;;;15.14;100.00
6680;BME280;3376;42.664;23.346;2023-04-25T06:51:16;93725.38;;;15.42;100.00
6680;BME280;3376;42.664;23.346;2023-04-25T06:53:43;93707.72;;;15.38;100.00
6680;BME280;3376;42.664;23.346;2023-04-25T06:56:10;93717.31;;;15.44;100.00
6680;BME280;3376;42.664;23.346;2023-04-25T06:58:36;93711.00;;;15.51;100.00
6680;BME280;3376;42.664;23.346;2023-04-25T07:01:03;93712.69;;;15.57;100.00
6680;BME280;3376;42.664;23.346;2023-04-25T07:03:30;93707.47;;;15.69;100.00
6680;BME280;3376;42.664;23.346;2023-04-25T07:05:58;93714.75;;;16.01;100.00
6680;BME280;3376;42.664;23.346;2023-04-25T07:08:25;93709.50;;;16.13;99.63
6680;BME280;3376;42.664;23.346;2023-04-25T07:10:52;93707.66;;;16.25;99.06
6680;BME280;3376;42.664;23.346;2023-04-25T07:13:18;93717.09;;;16.37;98.33
6680;BME280;3376;42.664;23.346;2023-04-25T07:15:45;93712.59;;;16.21;97.54
6680;BME280;3376;42.664;23.346;2023-04-25T07:18:13;93720.63;;;16.20;98.29
6680;BME280;3376;42.664;23.346;2023-04-25T07:20:40;93705.09;;;16.02;98.61
6680;BME280;3376;42.664;23.346;2023-04-25T07:23:08;93707.81;;;15.84;98.52
6680;BME280;3376;42.664;23.346;2023-04-25T07:25:35;93709.84;;;15.70;98.26
6680;BME280;3376;42.664;23.346;2023-04-25T07:28:02;93710.19;;;15.51;100.00
6680;BME280;3376;42.664;23.346;2023-04-25T07:30:29;93708.38;;;15.74;100.00
6680;BME280;3376;42.664;23.346;2023-04-25T07:32:56;93570.00;;;15.28;100.00
6680;BME280;3376;42.664;23.346;2023-04-25T07:35:23;93700.41;;;16.27;97.54
6680;BME280;3376;42.664;23.346;2023-04-25T07:37:50;93700.16;;;16.40;95.72
6680;BME280;3376;42.664;23.346;2023-04-25T07:40:18;93707.44;;;16.50;94.69
6680;BME280;3376;42.664;23.346;2023-04-25T07:42:45;93709.16;;;16.56;95.04
6680;BME280;3376;42.664;23.346;2023-04-25T07:45:11;93701.25;;;16.67;93.02
6680;BME280;3376;42.664;23.346;2023-04-25T07:47:38;93699.88;;;16.76;93.45
6680;BME280;3376;42.664;23.346;2023-04-25T07:50:06;93672.00;;;16.70;92.35
6680;BME280;3376;42.664;23.346;2023-04-25T07:52:33;93696.88;;;16.84;92.97
6680;BME280;3376;42.664;23.346;2023-04-25T07:54:59;93699.72;;;16.83;93.33
6680;BME280;3376;42.664;23.346;2023-04-25T07:57:28;93691.72;;;16.61;92.42
6680;BME280;3376;42.664;23.346;2023-04-25T07:59:55;93696.69;;;16.74;93.20
6680;BME280;3376;42.664;23.346;2023-04-25T08:02:22;93696.06;;;16.84;92.98
6680;BME280;3376;42.664;23.346;2023-04-25T08:04:49;93688.47;;;17.10;90.74
6680;BME280;3376;42.664;23.346;2023-04-25T08:07:15;93632.22;;;16.96;89.30
6680;BME280;3376;42.664;23.346;2023-04-25T08:09:42;93692.63;;;17.39;89.62
6680;BME280;3376;42.664;23.346;2023-04-25T08:12:09;93695.13;;;17.79;89.40
6680;BME280;3376;42.664;23.346;2023-04-25T08:14:37;93693.00;;;18.14;88.47
6680;BME280;3376;42.664;23.346;2023-04-25T08:17:05;93687.88;;;18.62;84.26
6680;BME280;3376;42.664;23.346;2023-04-25T08:19:32;93683.81;;;18.71;82.76
6680;BME280;3376;42.664;23.346;2023-04-25T08:21:58;93686.94;;;18.73;82.51
6680;BME280;3376;42.664;23.346;2023-04-25T08:24:25;93648.13;;;18.49;81.19
6680;BME280;3376;42.664;23.346;2023-04-25T08:26:52;93681.47;;;18.75;80.26
6680;BME280;3376;42.664;23.346;2023-04-25T08:29:19;93677.31;;;18.79;78.55
6680;BME280;3376;42.664;23.346;2023-04-25T08:31:47;93675.91;;;18.93;77.69
6680;BME280;3376;42.664;23.346;2023-04-25T08:34:14;93675.28;;;19.08;74.90
6680;BME280;3376;42.664;23.346;2023-04-25T08:36:41;93677.09;;;19.07;76.04
6680;BME280;3376;42.664;23.346;2023-04-25T08:39:07;93690.78;;;19.09;76.28
6680;BME280;3376;42.664;23.346;2023-04-25T08:41:36;93688.53;;;18.96;74.32
6680;BME280;3376;42.664;23.346;2023-04-25T08:44:03;93684.28;;;18.68;77.77
6680;BME280;3376;42.664;23.346;2023-04-25T08:46:31;93690.41;;;18.36;76.58
6680;BME280;3376;42.664;23.346;2023-04-25T08:49:01;93688.69;;;18.25;78.41
6680;BME280;3376;42.664;23.346;2023-04-25T08:51:31;93685.84;;;17.72;78.19
6680;BME280;3376;42.664;23.346;2023-04-25T08:54:04;93683.00;;;17.28;78.96
6680;BME280;3376;42.664;23.346;2023-04-25T08:56:34;93675.97;;;17.45;85.86
6680;BME280;3376;42.664;23.346;2023-04-25T08:59:01;93672.41;;;17.68;92.41
6680;BME280;3376;42.664;23.346;2023-04-25T09:01:28;93662.09;;;17.62;93.79
6680;BME280;3376;42.664;23.346;2023-04-25T09:03:57;93659.84;;;17.87;92.71
6680;BME280;3376;42.664;23.346;2023-04-25T09:06:25;93656.34;;;17.81;92.91
6680;BME280;3376;42.664;23.346;2023-04-25T09:08:53;93639.44;;;17.89;93.10
6680;BME280;3376;42.664;23.346;2023-04-25T09:11:19;93656.97;;;18.05;94.06
6680;BME280;3376;42.664;23.346;2023-04-25T09:13:46;93648.75;;;18.18;91.24
6680;BME280;3376;42.664;23.346;2023-04-25T09:16:13;93646.25;;;18.28;85.38
6680;BME280;3376;42.664;23.346;2023-04-25T09:18:42;93647.81;;;18.45;84.35
6680;BME280;3376;42.664;23.346;2023-04-25T09:21:10;93633.72;;;18.51;84.88
6680;BME280;3376;42.664;23.346;2023-04-25T09:23:43;93652.78;;;18.90;78.94
6680;BME280;3376;42.664;23.346;2023-04-25T09:26:14;93644.88;;;19.17;78.63
6680;BME280;3376;42.664;23.346;2023-04-25T09:28:41;93646.09;;;19.31;79.41
6680;BME280;3376;42.664;23.346;2023-04-25T09:31:09;93642.13;;;19.28;80.29
6680;BME280;3376;42.664;23.346;2023-04-25T09:33:37;93653.97;;;19.31;76.69
6680;BME280;3376;42.664;23.346;2023-04-25T09:36:05;93654.69;;;19.26;76.96
6680;BME280;3376;42.664;23.346;2023-04-25T09:38:40;93649.25;;;19.06;80.14
6680;BME280;3376;42.664;23.346;2023-04-25T09:41:09;93646.28;;;18.71;83.27
6680;BME280;3376;42.664;23.346;2023-04-25T09:43:36;93649.34;;;18.63;83.73
6680;BME280;3376;42.664;23.346;2023-04-25T09:46:08;93647.00;;;18.45;83.96
6680;BME280;3376;42.664;23.346;2023-04-25T09:48:35;93623.41;;;18.23;85.53
6680;BME280;3376;42.664;23.346;2023-04-25T09:51:06;93634.19;;;18.27;86.48
6680;BME280;3376;42.664;23.346;2023-04-25T09:53:34;93642.50;;;18.02;88.16
6680;BME280;3376;42.664;23.346;2023-04-25T09:56:03;93633.66;;;17.87;88.68
6680;BME280;3376;42.664;23.346;2023-04-25T09:58:34;93632.06;;;17.69;88.06
6680;BME280;3376;42.664;23.346;2023-04-25T10:01:03;93546.03;;;17.06;88.71
6680;BME280;3376;42.664;23.346;2023-04-25T10:03:33;93635.84;;;17.56;88.10
6680;BME280;3376;42.664;23.346;2023-04-25T10:06:02;93645.50;;;17.73;87.86
6680;BME280;3376;42.664;23.346;2023-04-25T10:08:31;93645.19;;;17.86;84.54
6680;BME280;3376;42.664;23.346;2023-04-25T10:11:00;93641.44;;;17.82;87.69
6680;BME280;3376;42.664;23.346;2023-04-25T10:13:29;93639.31;;;17.79;89.19
6680;BME280;3376;42.664;23.346;2023-04-25T10:15:59;93638.28;;;17.63;90.85
6680;BME280;3376;42.664;23.346;2023-04-25T10:18:27;93646.16;;;17.46;93.99
6680;BME280;3376;42.664;23.346;2023-04-25T10:20:54;93659.28;;;17.35;93.35
6680;BME280;3376;42.664;23.346;2023-04-25T10:23:22;93662.31;;;16.82;79.18
6680;BME280;3376;42.664;23.346;2023-04-25T10:25:50;93664.25;;;16.47;80.49
6680;BME280;3376;42.664;23.346;2023-04-25T10:28:18;93644.84;;;16.31;75.93
6680;BME280;3376;42.664;23.346;2023-04-25T10:30:58;93628.03;;;16.67;72.63
6680;BME280;3376;42.664;23.346;2023-04-25T10:33:36;93632.41;;;17.73;72.94
6680;BME280;3376;42.664;23.346;2023-04-25T10:36:09;93631.69;;;18.37;71.56
6680;BME280;3376;42.664;23.346;2023-04-25T10:38:37;93600.31;;;18.68;65.94
6680;BME280;3376;42.664;23.346;2023-04-25T10:41:04;93613.91;;;19.45;63.58
6680;BME280;3376;42.664;23.346;2023-04-25T10:43:37;93624.56;;;20.07;65.01
6680;BME280;3376;42.664;23.346;2023-04-25T10:46:19;93621.03;;;20.33;63.82
6680;BME280;3376;42.664;23.346;2023-04-25T10:48:49;93619.06;;;20.14;67.24
6680;BME280;3376;42.664;23.346;2023-04-25T10:51:20;93624.59;;;19.70;69.55
6680;BME280;3376;42.664;23.346;2023-04-25T10:53:57;93627.75;;;19.36;70.90
6680;BME280;3376;42.664;23.346;2023-04-25T10:56:26;93620.28;;;18.96;69.98
6680;BME280;3376;42.664;23.346;2023-04-25T10:59:04;93621.75;;;18.60;69.09
6680;BME280;3376;42.664;23.346;2023-04-25T11:01:38;93626.69;;;18.35;70.17
6680;BME280;3376;42.664;23.346;2023-04-25T11:04:05;93636.25;;;18.25;70.69
6680;BME280;3376;42.664;23.346;2023-04-25T11:06:41;93621.16;;;18.15;70.23
6680;BME280;3376;42.664;23.346;2023-04-25T11:09:12;93615.88;;;18.10;70.84
6680;BME280;3376;42.664;23.346;2023-04-25T11:11:39;93613.22;;;18.27;68.20
6680;BME280;3376;42.664;23.346;2023-04-25T11:14:06;93586.44;;;18.25;68.54
6680;BME280;3376;42.664;23.346;2023-04-25T11:16:33;93606.34;;;18.69;69.61
6680;BME280;3376;42.664;23.346;2023-04-25T11:19:03;93618.59;;;18.85;69.88
6680;BME280;3376;42.664;23.346;2023-04-25T11:21:30;93610.69;;;18.80;68.94
6680;BME280;3376;42.664;23.346;2023-04-25T11:23:59;93617.25;;;19.09;69.83
6680;BME280;3376;42.664;23.346;2023-04-25T11:26:26;93607.63;;;18.40;67.72
6680;BME280;3376;42.664;23.346;2023-04-25T11:28:57;93602.03;;;18.36;74.21
6680;BME280;3376;42.664;23.346;2023-04-25T11:31:24;93611.03;;;18.40;75.74
6680;BME280;3376;42.664;23.346;2023-04-25T11:33:53;93612.38;;;18.43;75.60
6680;BME280;3376;42.664;23.346;2023-04-25T11:36:22;93604.50;;;18.21;77.85
6680;BME280;3376;42.664;23.346;2023-04-25T11:38:50;93610.63;;;17.89;77.08
6680;BME280;3376;42.664;23.346;2023-04-25T11:41:16;93616.34;;;17.86;77.04
6680;BME280;3376;42.664;23.346;2023-04-25T11:43:44;93599.63;;;17.53;76.86
6680;BME280;3376;42.664;23.346;2023-04-25T11:46:10;93635.69;;;17.46;79.18
6680;BME280;3376;42.664;23.346;2023-04-25T11:48:38;93633.03;;;17.13;75.30
6680;BME280;3376;42.664;23.346;2023-04-25T11:51:05;93642.19;;;16.83;73.63
6680;BME280;3376;42.664;23.346;2023-04-25T11:53:34;93647.50;;;16.60;74.14
6680;BME280;3376;42.664;23.346;2023-04-25T11:56:01;93622.53;;;16.01;78.93
6680;BME280;3376;42.664;23.346;2023-04-25T11:58:56;93629.59;;;15.66;84.81
6680;BME280;3376;42.664;23.346;2023-04-25T12:01:27;93621.59;;;15.26;88.95
6680;BME280;3376;42.664;23.346;2023-04-25T12:03:54;93610.84;;;14.70;88.82
6680;BME280;3376;42.664;23.346;2023-04-25T12:06:21;93606.03;;;14.55;92.98
6680;BME280;3376;42.664;23.346;2023-04-25T12:09:04;93611.41;;;14.72;95.43
6680;BME280;3376;42.664;23.346;2023-04-25T12:11:31;93605.53;;;14.88;94.88
6680;BME280;3376;42.664;23.346;2023-04-25T12:14:02;93605.91;;;14.91;94.09
6680;BME280;3376;42.664;23.346;2023-04-25T12:16:31;93580.50;;;14.87;90.62
6680;BME280;3376;42.664;23.346;2023-04-25T12:19:06;93593.97;;;14.72;92.57
6680;BME280;3376;42.664;23.346;2023-04-25T12:21:32;93599.09;;;14.90;94.04
6680;BME280;3376;42.664;23.346;2023-04-25T12:24:10;93592.97;;;14.96;94.15
6680;BME280;3376;42.664;23.346;2023-04-25T12:26:48;93582.44;;;14.91;95.12
6680;BME280;3376;42.664;23.346;2023-04-25T12:29:16;93590.69;;;14.88;93.53
6680;BME280;3376;42.664;23.346;2023-04-25T12:31:43;93585.81;;;14.80;95.77
6680;BME280;3376;42.664;23.346;2023-04-25T12:34:10;93587.34;;;15.22;95.01
6680;BME280;3376;42.664;23.346;2023-04-25T12:36:37;93599.03;;;15.78;92.96
6680;BME280;3376;42.664;23.346;2023-04-25T12:39:04;93574.84;;;15.94;86.86
6680;BME280;3376;42.664;23.346;2023-04-25T12:41:32;93647.72;;;16.07;89.83
6680;BME280;3376;42.664;23.346;2023-04-25T12:43:59;93654.00;;;15.83;93.00
6680;BME280;3376;42.664;23.346;2023-04-25T12:46:25;93655.94;;;15.64;96.92
6680;BME280;3376;42.664;23.346;2023-04-25T12:48:53;93655.69;;;15.66;100.00
6680;BME280;3376;42.664;23.346;2023-04-25T12:51:20;93649.47;;;15.55;100.00
6680;BME280;3376;42.664;23.346;2023-04-25T12:53:50;93659.47;;;15.70;100.00
6680;BME280;3376;42.664;23.346;2023-04-25T12:56:17;93650.47;;;15.66;100.00
6680;BME280;3376;42.664;23.346;2023-04-25T12:58:45;93657.63;;;15.70;100.00
6680;BME280;3376;42.664;23.346;2023-04-25T13:01:13;93662.16;;;15.63;100.00
6680;BME280;3376;42.664;23.346;2023-04-25T13:03:40;93673.81;;;15.38;100.00
6680;BME280;3376;42.664;23.346;2023-04-25T13:06:07;93551.16;;;14.50;100.00
6680;BME280;3376;42.664;23.346;2023-04-25T13:08:34;93675.09;;;15.05;100.00